createdAt,value
2023-08-12T00:00:21.424Z,34.00
2023-08-12T00:02:48.482Z,33.80
2023-08-12T00:05:15.421Z,34.40
2023-08-12T00:07:45.210Z,34.20
2023-08-12T00:10:12.556Z,33.70
2023-08-12T00:12:39.618Z,33.70
2023-08-12T00:15:08.399Z,33.70
2023-08-12T00:17:36.173Z,32.50
2023-08-12T00:20:07.042Z,33.70
2023-08-12T00:22:34.076Z,33.70
2023-08-12T00:25:01.112Z,32.00
2023-08-12T00:27:28.084Z,32.90
2023-08-12T00:29:55.095Z,32.50
2023-08-12T00:32:22.078Z,32.80
2023-08-12T00:34:49.027Z,33.00
2023-08-12T00:37:16.247Z,32.20
2023-08-12T00:39:43.390Z,32.20
2023-08-12T00:42:10.354Z,33.30
2023-08-12T00:44:37.337Z,33.70
2023-08-12T00:47:04.584Z,33.60
2023-08-12T00:49:31.749Z,33.70
2023-08-12T00:51:58.732Z,32.80
2023-08-12T00:54:26.165Z,33.60
2023-08-12T00:56:54.370Z,33.10
2023-08-12T00:59:21.544Z,33.60
2023-08-12T01:01:48.627Z,33.10
2023-08-12T01:04:15.655Z,33.60
2023-08-12T01:06:42.589Z,34.70
2023-08-12T01:09:10.129Z,33.50
2023-08-12T01:11:40.584Z,33.40
2023-08-12T01:14:09.562Z,32.20
2023-08-12T01:16:39.301Z,32.80
2023-08-12T01:19:06.508Z,33.40
2023-08-12T01:21:33.772Z,33.40
2023-08-12T01:24:00.724Z,33.40
2023-08-12T01:26:27.652Z,33.30
2023-08-12T01:28:54.596Z,33.40
2023-08-12T01:31:41.975Z,36.40
2023-08-12T01:34:13.412Z,36.80
2023-08-12T01:36:40.721Z,37.40
2023-08-12T01:39:08.557Z,36.50
2023-08-12T01:41:35.543Z,37.20
2023-08-12T01:44:03.358Z,36.50
2023-08-12T01:46:30.420Z,35.90
2023-08-12T01:48:57.462Z,37.20
2023-08-12T01:51:24.495Z,35.70
2023-08-12T01:53:51.441Z,36.40
2023-08-12T01:56:18.393Z,37.50
2023-08-12T01:58:45.307Z,37.60
2023-08-12T02:01:12.449Z,37.60
2023-08-12T02:03:40.315Z,38.20
2023-08-12T02:06:07.624Z,39.10
2023-08-12T02:08:36.516Z,40.60
2023-08-12T02:11:03.555Z,41.90
2023-08-12T02:13:30.969Z,44.10
2023-08-12T02:15:57.979Z,46.50
2023-08-12T02:18:24.902Z,47.40
2023-08-12T02:20:51.836Z,48.00
2023-08-12T02:23:18.770Z,49.70
2023-08-12T02:25:46.180Z,50.00
2023-08-12T02:28:13.143Z,50.40
2023-08-12T02:30:40.226Z,51.40
2023-08-12T02:33:07.220Z,51.30
2023-08-12T02:35:34.229Z,51.60
2023-08-12T02:38:01.178Z,52.50
2023-08-12T02:40:28.341Z,53.10
2023-08-12T02:42:55.320Z,52.40
2023-08-12T02:45:22.334Z,54.50
2023-08-12T02:47:49.317Z,55.70
2023-08-12T02:50:16.483Z,57.80
2023-08-12T02:52:43.451Z,57.60
2023-08-12T02:55:10.666Z,60.00
2023-08-12T02:57:37.787Z,58.80
2023-08-12T03:00:05.482Z,61.60
2023-08-12T03:02:32.504Z,61.10
2023-08-12T03:04:59.561Z,61.30
2023-08-12T03:07:26.523Z,62.40
2023-08-12T03:09:53.643Z,61.40
2023-08-12T03:12:20.627Z,63.30
2023-08-12T03:14:47.614Z,62.70
2023-08-12T03:17:15.388Z,62.50
2023-08-12T03:19:42.820Z,63.50
2023-08-12T03:22:09.791Z,63.40
2023-08-12T03:24:39.386Z,64.60
2023-08-12T03:27:06.333Z,64.60
2023-08-12T03:29:33.417Z,65.90
2023-08-12T03:32:01.246Z,66.00
2023-08-12T03:34:29.688Z,66.20
2023-08-12T03:36:56.715Z,65.30
2023-08-12T03:39:23.666Z,65.40
2023-08-12T03:41:54.638Z,66.20
2023-08-12T03:44:21.940Z,65.30
2023-08-12T03:46:49.377Z,65.90
2023-08-12T03:49:16.541Z,64.50
2023-08-12T03:51:44.779Z,64.10
2023-08-12T03:54:11.699Z,62.90
2023-08-12T03:56:38.648Z,62.50
2023-08-12T03:59:05.689Z,62.00
2023-08-12T04:01:32.612Z,61.20
2023-08-12T04:03:59.650Z,62.50
2023-08-12T04:06:26.882Z,62.10
2023-08-12T04:08:53.854Z,62.70
2023-08-12T04:11:20.794Z,63.10
2023-08-12T04:13:47.753Z,63.40
2023-08-12T04:16:14.814Z,62.30
2023-08-12T04:18:41.863Z,61.00
2023-08-12T04:21:08.812Z,60.00
2023-08-12T04:23:35.840Z,59.80
2023-08-12T04:26:02.841Z,60.40
2023-08-12T04:28:30.562Z,58.90
2023-08-12T04:30:57.771Z,58.70
2023-08-12T04:33:26.325Z,59.80
2023-08-12T04:35:53.766Z,59.80
2023-08-12T04:38:21.632Z,60.30
2023-08-12T04:40:50.840Z,60.90
2023-08-12T04:43:18.279Z,60.80
2023-08-12T04:45:48.577Z,60.80
2023-08-12T04:48:18.216Z,61.00
2023-08-12T04:50:45.336Z,61.80
2023-08-12T04:53:12.317Z,61.20
2023-08-12T04:55:40.423Z,60.20
2023-08-12T04:58:07.516Z,59.00
2023-08-12T05:00:34.841Z,58.60
2023-08-12T05:03:01.953Z,57.60
2023-08-12T05:05:29.962Z,57.90
2023-08-12T05:07:57.382Z,57.80
2023-08-12T05:10:24.475Z,57.80
2023-08-12T05:12:53.668Z,56.90
2023-08-12T05:15:21.018Z,57.80
2023-08-12T05:17:49.162Z,57.80
2023-08-12T05:20:20.129Z,57.90
2023-08-12T05:22:47.693Z,56.90
2023-08-12T05:25:14.768Z,57.20
2023-08-12T05:27:42.768Z,55.70
2023-08-12T05:30:10.153Z,56.20
2023-08-12T05:32:37.136Z,55.20
2023-08-12T05:35:04.263Z,55.30
2023-08-12T05:37:31.272Z,54.70
2023-08-12T05:39:58.204Z,54.20
2023-08-12T05:42:25.212Z,53.60
2023-08-12T05:44:52.221Z,52.70
2023-08-12T05:47:19.392Z,52.30
2023-08-12T05:49:46.605Z,50.50
2023-08-12T05:52:13.775Z,49.70
2023-08-12T05:54:40.913Z,49.00
2023-08-12T05:57:07.853Z,48.70
2023-08-12T05:59:34.768Z,47.10
2023-08-12T06:02:01.764Z,46.40
2023-08-12T06:04:28.754Z,45.20
2023-08-12T06:06:55.838Z,42.90
2023-08-12T06:09:23.054Z,42.30
2023-08-12T06:11:50.059Z,40.20
2023-08-12T06:14:17.059Z,41.00
2023-08-12T06:16:44.081Z,40.80
2023-08-12T06:19:13.700Z,39.70
2023-08-12T06:21:40.925Z,39.30
2023-08-12T06:24:08.086Z,36.10
2023-08-12T06:26:35.068Z,35.80
2023-08-12T06:29:04.903Z,34.40
2023-08-12T06:31:32.998Z,33.50
2023-08-12T06:34:00.625Z,35.30
2023-08-12T06:36:27.848Z,35.50
2023-08-12T06:38:54.956Z,35.50
2023-08-12T06:41:21.960Z,33.70
2023-08-12T06:43:48.883Z,33.70
2023-08-12T06:46:15.994Z,34.70
2023-08-12T06:48:42.967Z,33.70
2023-08-12T06:51:13.042Z,33.80
2023-08-12T06:53:40.278Z,36.40
2023-08-12T06:56:07.272Z,33.90
2023-08-12T06:58:34.392Z,32.20
2023-08-12T07:01:01.815Z,30.60
2023-08-12T07:03:28.943Z,27.70
2023-08-12T07:05:56.179Z,23.40
2023-08-12T07:08:23.138Z,22.20
2023-08-12T07:10:50.226Z,16.10
2023-08-12T07:13:17.191Z,16.20
2023-08-12T07:15:44.220Z,13.80
2023-08-12T07:18:11.390Z,13.50
2023-08-12T07:20:39.205Z,8.00
2023-08-12T07:23:06.210Z,2.10
2023-08-12T07:25:33.229Z,1.00
2023-08-12T07:28:00.354Z,1.00
2023-08-12T07:30:27.328Z,1.00
2023-08-12T07:32:54.279Z,1.00
2023-08-12T07:35:21.291Z,1.00
2023-08-12T07:37:48.254Z,1.00
2023-08-12T07:40:15.225Z,1.00
2023-08-12T07:42:42.124Z,1.00
2023-08-12T07:45:10.268Z,1.00
2023-08-12T07:47:39.320Z,1.00
2023-08-12T07:50:07.489Z,1.00
2023-08-12T07:52:34.384Z,1.00
2023-08-12T07:55:01.531Z,1.00
2023-08-12T07:57:28.556Z,1.00
2023-08-12T07:59:55.590Z,1.00
2023-08-12T08:02:22.598Z,1.00
2023-08-12T08:04:50.629Z,1.00
2023-08-12T08:07:17.972Z,1.00
2023-08-12T08:09:45.025Z,1.00
2023-08-12T08:12:12.516Z,1.00
2023-08-12T08:14:39.584Z,1.00
2023-08-12T08:17:06.714Z,1.00
2023-08-12T08:19:33.833Z,1.00
2023-08-12T08:22:00.785Z,1.00
2023-08-12T08:24:28.033Z,1.00
2023-08-12T08:26:55.037Z,1.00
2023-08-12T08:29:22.532Z,1.00
2023-08-12T08:31:49.458Z,1.00
2023-08-12T08:34:16.662Z,1.00
2023-08-12T08:36:44.304Z,1.00
2023-08-12T08:39:11.373Z,1.00
2023-08-12T08:41:39.300Z,1.00
2023-08-12T08:44:08.602Z,1.00
2023-08-12T08:46:35.683Z,1.00
2023-08-12T08:49:02.659Z,1.00
2023-08-12T08:51:35.239Z,1.00
2023-08-12T08:54:08.237Z,1.00
2023-08-12T08:56:37.595Z,1.00
2023-08-12T08:59:12.434Z,1.00
2023-08-12T09:01:39.443Z,1.00
2023-08-12T09:04:06.537Z,1.00
2023-08-12T09:06:33.988Z,1.00
2023-08-12T09:09:00.947Z,1.00
2023-08-12T09:11:27.910Z,1.00
2023-08-12T09:13:54.933Z,1.00
2023-08-12T09:16:21.898Z,1.00
2023-08-12T09:18:48.863Z,1.00
2023-08-12T09:21:17.000Z,1.00
2023-08-12T09:23:45.360Z,1.00
2023-08-12T09:26:16.406Z,1.00
2023-08-12T09:28:43.730Z,1.00
2023-08-12T09:31:22.818Z,1.00
2023-08-12T09:33:49.820Z,1.00
2023-08-12T09:36:17.013Z,1.00
2023-08-12T09:38:44.398Z,1.00
2023-08-12T09:41:11.503Z,1.00
2023-08-12T09:43:41.979Z,1.00
2023-08-12T09:46:11.783Z,1.00
2023-08-12T09:48:38.865Z,1.00
2023-08-12T09:51:06.938Z,1.00
2023-08-12T09:53:34.016Z,1.00
2023-08-12T09:56:07.447Z,1.00
2023-08-12T09:58:34.454Z,1.00
2023-08-12T10:01:02.839Z,1.00
2023-08-12T10:03:30.390Z,1.00
2023-08-12T10:05:57.474Z,1.00
2023-08-12T10:08:24.535Z,1.00
2023-08-12T10:11:03.037Z,1.00
2023-08-12T10:13:38.436Z,1.00
2023-08-12T10:16:05.437Z,1.00
2023-08-12T10:18:32.623Z,1.00
2023-08-12T10:21:00.010Z,1.00
2023-08-12T10:23:27.096Z,1.00
2023-08-12T10:25:57.239Z,1.00
2023-08-12T10:28:24.546Z,1.00
2023-08-12T10:30:51.465Z,1.00
2023-08-12T10:33:19.793Z,1.00
2023-08-12T10:35:47.440Z,1.00
2023-08-12T10:38:14.762Z,1.00
2023-08-12T10:40:41.889Z,1.00
2023-08-12T10:43:08.955Z,1.00
2023-08-12T10:45:42.771Z,1.00
2023-08-12T10:48:10.390Z,1.00
2023-08-12T10:50:37.492Z,1.00
2023-08-12T10:53:22.464Z,1.00
2023-08-12T10:55:49.935Z,1.00
2023-08-12T10:58:35.412Z,1.00
2023-08-12T11:01:02.609Z,1.00
2023-08-12T11:03:35.714Z,1.00
2023-08-12T11:06:04.383Z,1.00
2023-08-12T11:08:31.353Z,1.00
2023-08-12T11:10:58.689Z,1.00
2023-08-12T11:13:28.438Z,1.00
2023-08-12T11:16:06.582Z,1.00
2023-08-12T11:18:33.541Z,1.00
2023-08-12T11:21:00.529Z,1.00
2023-08-12T11:23:27.544Z,1.00
2023-08-12T11:25:54.527Z,1.00
2023-08-12T11:28:21.491Z,1.00
2023-08-12T11:30:48.504Z,1.00
2023-08-12T11:33:17.584Z,1.00
2023-08-12T11:35:44.565Z,1.00
2023-08-12T11:38:11.560Z,1.00
2023-08-12T11:40:38.589Z,1.00
2023-08-12T11:43:07.128Z,1.00
2023-08-12T11:45:34.679Z,1.00
2023-08-12T11:48:01.688Z,1.00
2023-08-12T11:50:28.909Z,1.00
2023-08-12T11:52:56.550Z,1.00
